Aeroporto :







RITROVATECI SU...

 
LOGIN :

Iscrizione | Disclaimer

   EN    FR    IT 

 









Sommario :    VFR   VFR Marginale   IFR   IFR Intensivo   IFR Molto Intensivo
Visibilità : 
Base nubi : 
>= 8 km
>= 3000ft
5 / 8 km
1000 / 3000 ft
1500m / 5 km
500 / 1000 ft
800 / 1500m
200 / 500 ft
< 800m
< 200 ft
Simboli :   Temporali  Nebbia  Neve Forte  Precipitazioni Forti  Vento > 20 kt






- Altitudine del aeroporto : 1009 ft
- Codice IATA : ORH


KORH - Worcester Regional

ULTIMO METAR :
  • 040254Z 04008G18KT 3SM -RA BR BKN004 OVC009 06/04 A2986 RMK AO2 PK WND 06028/0241 SLP119 P0003 60008 T00610044 51021

METARs OBSOLETI :
  • 040154Z 05014G25KT 4SM -RA BR BKN005 OVC010 06/05 A2985 RMK AO2 SLP114 P0002 T00610050
  • 040054Z 03014G22KT 3SM -RA BR OVC005 06/05 A2983 RMK AO2 SLP107 P0003 T00610050
  • 040022Z 04012G21KT 3SM -RA BR OVC005 06/05 A2982 RMK AO2 P0002 T00610050

TAF KORH
Valido dal 04 a 00 ore il 05 a 00 ore UTC


032326Z 0400/0424 04015G24KT 2SM -SHRA BR OVC008
FM040300 03011G21KT 1 1/2SM BR VCSH OVC007
FM041300 03007KT 2SM BR OVC006
FM041400 03007KT 6SM BR OVC007
FM041600 03007KT P6SM BKN008
FM042200 05006KT P6SM BKN021



MetMap, La meteo Aeronautica in un colpo d'occhio ! - Copyright ORBIFLY Dicembre 2007 - Disclaimer

ORBIFLY MET'MAP TEAM :

Programmazione e sviluppo : Alexandra Zaïnal
Concezione : Baudouin d'Aumeries
Aiuto per la programmazione : Marc-Olivier Méhu
Supporto tecnico e logistico : Manuel Goepfert
Aiuto per la traduzione : Arnaldo La Scala

Contatto : metmap@orbifly.com




FONTI E CREDITI :

   NOAA